Time;durP1;ratioP1;P1;durP2;ratioP2;P2;SDS_P1;SDS_P2;PMS_P1;PMS_P2;Temp;Humidity;BMP_temperature;BMP_pressure;BME280_temperature;BME280_humidity;BME280_pressure;Samples;Min_cycle;Max_cycle;Signal;HPM_P1;HPM_P2
2023/06/19 00:01:44;;;;;;;29.35;19.10;;;14.90;99.90;;;;;;5066094;28;20033;-83
2023/06/19 00:04:10;;;;;;;29.58;20.55;;;14.90;99.90;;;;;;5042931;28;20051;-83
2023/06/19 00:06:36;;;;;;;28.48;19.88;;;14.80;99.90;;;;;;5045949;28;20090;-84
2023/06/19 00:09:02;;;;;;;25.85;17.85;;;14.80;99.90;;;;;;5046497;28;20029;-83
2023/06/19 00:11:28;;;;;;;31.73;19.05;;;14.80;99.90;;;;;;5030918;28;20079;-83
2023/06/19 00:13:54;;;;;;;29.80;20.55;;;14.80;99.90;;;;;;5046830;28;20025;-83
2023/06/19 00:16:20;;;;;;;33.17;21.15;;;14.80;99.90;;;;;;5027887;28;20479;-83
2023/06/19 00:18:46;;;;;;;31.98;21.67;;;15.00;99.90;;;;;;5053234;28;20025;-83
2023/06/19 00:21:12;;;;;;;36.40;20.73;;;15.10;99.90;;;;;;5046920;28;20207;-83
2023/06/19 00:23:37;;;;;;;34.10;21.98;;;15.10;99.90;;;;;;5065253;28;20104;-84
2023/06/19 00:26:03;;;;;;;32.22;20.70;;;15.30;99.90;;;;;;5066643;28;20050;-82
2023/06/19 00:28:30;;;;;;;35.95;22.35;;;15.40;99.90;;;;;;5047880;28;20032;-83
2023/06/19 00:30:56;;;;;;;33.17;22.08;;;15.40;99.90;;;;;;5056308;28;20028;-83
2023/06/19 00:33:22;;;;;;;33.10;21.20;;;15.50;99.90;;;;;;5063783;28;20020;-83
2023/06/19 00:35:50;;;;;;;35.40;20.83;;;15.60;99.90;;;;;;5038050;28;20033;-83
2023/06/19 00:38:16;;;;;;;35.58;21.35;;;15.70;99.90;;;;;;5026995;28;20377;-83
2023/06/19 00:40:41;;;;;;;33.83;20.80;;;15.70;99.90;;;;;;5044451;28;20051;-82
2023/06/19 00:43:07;;;;;;;32.88;20.00;;;15.80;99.90;;;;;;5055744;28;20039;-82
2023/06/19 00:45:33;;;;;;;34.30;21.23;;;15.80;99.90;;;;;;5036305;28;20033;-83
2023/06/19 00:47:59;;;;;;;31.73;20.65;;;15.90;99.90;;;;;;5044131;28;20437;-83
2023/06/19 00:50:27;;;;;;;34.60;21.25;;;15.90;99.90;;;;;;5060236;28;20090;-83
2023/06/19 00:52:53;;;;;;;32.58;20.15;;;16.00;99.90;;;;;;5027510;28;20119;-83
2023/06/19 00:55:18;;;;;;;34.95;20.77;;;16.00;99.90;;;;;;5044030;28;20146;-83
2023/06/19 00:57:45;;;;;;;35.20;20.92;;;16.00;99.90;;;;;;5044942;28;20487;-83
2023/06/19 01:00:12;;;;;;;35.45;20.77;;;16.10;99.90;;;;;;5065092;28;20051;-83
2023/06/19 01:02:38;;;;;;;33.78;20.90;;;16.10;99.90;;;;;;5065824;28;20032;-83
2023/06/19 01:05:05;;;;;;;33.67;20.35;;;16.10;99.90;;;;;;5039990;28;20052;-83
2023/06/19 01:07:49;;;;;;;29.48;18.80;;;16.10;99.90;;;;;;5045091;28;20029;-83
2023/06/19 01:10:19;;;;;;;32.80;19.05;;;16.20;99.90;;;;;;5040071;28;20464;-83
2023/06/19 01:12:54;;;;;;;29.60;18.65;;;16.20;99.90;;;;;;5044034;28;20804;-83
2023/06/19 01:15:22;;;;;;;27.05;18.75;;;16.20;99.90;;;;;;5049835;28;20029;-84
2023/06/19 01:17:48;;;;;;;29.23;19.17;;;16.30;99.90;;;;;;5053934;28;20033;-84
2023/06/19 01:20:14;;;;;;;30.67;19.95;;;16.30;99.90;;;;;;5041353;28;20224;-83
2023/06/19 01:22:43;;;;;;;29.25;19.75;;;16.30;99.90;;;;;;5037130;28;20133;-83
2023/06/19 01:25:09;;;;;;;26.70;17.95;;;16.30;99.90;;;;;;5057342;28;20040;-84
2023/06/19 01:27:35;;;;;;;27.92;19.75;;;16.30;99.90;;;;;;5064666;28;20481;-82
2023/06/19 01:30:03;;;;;;;31.98;18.95;;;16.30;99.90;;;;;;5063490;28;20024;-84
2023/06/19 01:33:07;;;;;;;32.17;18.88;;;16.30;99.90;;;;;;5045044;28;20033;-83
2023/06/19 01:35:35;;;;;;;28.38;19.08;;;16.30;99.90;;;;;;5049487;28;20072;-83
2023/06/19 01:38:02;;;;;;;34.65;19.42;;;16.40;99.90;;;;;;5045600;28;20114;-85
2023/06/19 01:40:31;;;;;;;28.27;18.88;;;16.40;99.90;;;;;;5042620;28;20039;-83
2023/06/19 01:42:59;;;;;;;31.52;18.80;;;16.40;99.90;;;;;;5044353;28;20463;-83
2023/06/19 01:45:25;;;;;;;31.33;19.88;;;16.40;99.90;;;;;;5050680;28;20031;-83
2023/06/19 01:47:50;;;;;;;25.75;17.33;;;16.40;99.90;;;;;;5033361;28;20504;-83
2023/06/19 01:50:16;;;;;;;30.90;18.40;;;16.40;99.90;;;;;;5029153;28;20036;-83
2023/06/19 01:52:42;;;;;;;30.13;18.95;;;16.50;99.90;;;;;;5044369;28;20090;-84
2023/06/19 01:55:09;;;;;;;27.60;17.73;;;16.50;99.90;;;;;;5041564;28;20051;-83
2023/06/19 01:57:36;;;;;;;31.80;19.30;;;16.50;99.90;;;;;;5044114;28;20048;-83
2023/06/19 02:00:04;;;;;;;26.67;17.63;;;16.40;99.90;;;;;;5046963;28;20482;-83
2023/06/19 02:02:30;;;;;;;34.17;19.35;;;16.40;99.90;;;;;;5045827;28;20118;-83
2023/06/19 02:04:56;;;;;;;30.17;19.27;;;16.30;99.90;;;;;;5031006;28;20622;-83
2023/06/19 02:07:21;;;;;;;32.00;19.15;;;16.20;99.90;;;;;;5044374;28;20036;-83
2023/06/19 02:09:48;;;;;;;33.42;19.75;;;16.20;99.90;;;;;;5020425;28;20071;-83
2023/06/19 02:12:13;;;;;;;27.48;17.40;;;16.10;99.90;;;;;;5026620;28;20232;-83
2023/06/19 02:14:39;;;;;;;28.05;17.70;;;16.10;99.90;;;;;;5019779;28;20128;-83
2023/06/19 02:17:04;;;;;;;31.63;17.92;;;16.10;99.90;;;;;;5043216;28;20025;-84
2023/06/19 02:19:30;;;;;;;29.05;18.30;;;16.00;99.90;;;;;;5045198;28;20059;-83
2023/06/19 02:21:56;;;;;;;30.80;18.88;;;15.90;99.90;;;;;;5046238;28;20083;-82
2023/06/19 02:24:22;;;;;;;28.55;18.05;;;15.70;99.90;;;;;;5023989;28;20037;-82
2023/06/19 02:26:47;;;;;;;30.25;18.38;;;15.50;99.90;;;;;;5015987;28;20152;-83
2023/06/19 02:29:13;;;;;;;30.05;17.90;;;15.50;99.90;;;;;;5041833;28;20540;-83
2023/06/19 02:31:39;;;;;;;33.13;19.50;;;15.40;99.90;;;;;;5012702;28;20044;-82
2023/06/19 02:34:04;;;;;;;27.65;17.35;;;15.30;99.90;;;;;;5034753;28;20112;-83
2023/06/19 02:36:30;;;;;;;27.15;17.58;;;15.20;99.90;;;;;;5027744;28;20947;-83
2023/06/19 02:38:56;;;;;;;28.52;17.45;;;15.10;99.90;;;;;;5041744;28;20025;-84
2023/06/19 02:41:21;;;;;;;24.92;16.83;;;15.10;99.90;;;;;;5025896;28;20040;-84
2023/06/19 02:43:47;;;;;;;25.20;16.60;;;14.90;99.90;;;;;;5043064;28;20040;-84
2023/06/19 02:46:12;;;;;;;26.48;17.67;;;14.90;99.90;;;;;;5045996;28;20037;-83
2023/06/19 02:48:38;;;;;;;27.85;16.55;;;14.80;99.90;;;;;;5045486;28;20033;-83
2023/06/19 02:51:04;;;;;;;30.23;17.80;;;14.70;99.90;;;;;;5029197;28;20033;-84
2023/06/19 02:53:29;;;;;;;28.73;18.95;;;14.70;99.90;;;;;;5043161;28;20074;-83
2023/06/19 02:55:55;;;;;;;26.85;16.73;;;14.70;99.90;;;;;;5027093;28;20033;-83
2023/06/19 02:58:20;;;;;;;29.52;18.83;;;14.70;99.90;;;;;;5035964;28;20031;-82
2023/06/19 03:00:46;;;;;;;27.77;17.00;;;14.70;99.90;;;;;;5043474;28;20140;-83
2023/06/19 03:03:12;;;;;;;29.15;17.65;;;14.70;99.90;;;;;;5025214;28;20032;-83
2023/06/19 03:05:38;;;;;;;32.65;18.88;;;14.70;99.90;;;;;;5062267;28;20090;-83
2023/06/19 03:08:04;;;;;;;29.45;19.23;;;14.80;99.90;;;;;;5065554;28;20027;-83
2023/06/19 03:10:30;;;;;;;29.08;19.50;;;14.90;99.90;;;;;;5067031;28;20032;-83
2023/06/19 03:12:57;;;;;;;33.05;18.42;;;15.00;99.90;;;;;;5064973;28;20603;-83
2023/06/19 03:15:23;;;;;;;34.75;19.55;;;15.10;99.90;;;;;;5046745;28;20039;-82
2023/06/19 03:17:49;;;;;;;36.47;20.05;;;15.10;99.90;;;;;;5064660;28;20032;-82
2023/06/19 03:20:14;;;;;;;34.05;20.30;;;15.20;99.90;;;;;;5059477;28;20475;-84
2023/06/19 03:22:41;;;;;;;35.10;18.88;;;15.30;99.90;;;;;;5046140;28;20032;-82
2023/06/19 03:25:07;;;;;;;35.25;19.30;;;15.40;99.90;;;;;;5038891;28;20032;-83
2023/06/19 03:27:33;;;;;;;32.22;18.98;;;15.50;99.90;;;;;;5028998;28;20548;-83
2023/06/19 03:29:58;;;;;;;31.70;20.13;;;15.60;99.90;;;;;;5026215;28;20184;-83
2023/06/19 03:32:24;;;;;;;33.33;19.08;;;15.70;99.90;;;;;;5046124;28;20029;-82
2023/06/19 03:34:50;;;;;;;29.80;17.88;;;15.80;99.90;;;;;;5035241;28;20021;-84
2023/06/19 03:37:16;;;;;;;31.75;17.98;;;15.90;99.90;;;;;;5046195;28;20025;-83
2023/06/19 03:39:42;;;;;;;30.65;17.10;;;15.90;99.90;;;;;;5047026;28;20029;-85
2023/06/19 03:42:07;;;;;;;28.85;16.83;;;15.90;99.90;;;;;;5047577;28;20033;-82
2023/06/19 03:44:33;;;;;;;27.45;16.20;;;15.90;99.90;;;;;;5057531;28;20048;-85
2023/06/19 03:46:59;;;;;;;29.58;16.33;;;15.90;99.90;;;;;;5052779;28;20123;-84
2023/06/19 03:49:24;;;;;;;26.48;16.08;;;16.00;99.90;;;;;;5062665;28;20035;-85
2023/06/19 03:51:50;;;;;;;26.75;16.17;;;16.00;99.90;;;;;;5065649;28;20066;-85
2023/06/19 03:54:15;;;;;;;23.40;14.95;;;16.10;99.90;;;;;;5063563;28;20034;-84
2023/06/19 03:56:41;;;;;;;21.67;15.15;;;16.10;99.90;;;;;;5046911;28;20044;-84
2023/06/19 03:59:07;;;;;;;26.70;15.30;;;16.20;99.90;;;;;;5054987;28;20555;-85
2023/06/19 04:01:33;;;;;;;26.40;14.05;;;16.20;99.90;;;;;;5039182;28;20095;-84
2023/06/19 04:03:59;;;;;;;21.02;14.00;;;16.20;99.90;;;;;;5064560;28;20549;-85
2023/06/19 04:06:24;;;;;;;22.48;13.95;;;16.20;99.90;;;;;;5064086;28;20040;-85
2023/06/19 04:08:50;;;;;;;18.85;13.15;;;16.10;99.90;;;;;;5049303;28;20033;-84
2023/06/19 04:11:15;;;;;;;23.67;13.30;;;16.10;99.90;;;;;;5027233;28;20033;-83
2023/06/19 04:13:41;;;;;;;20.67;13.40;;;16.10;99.90;;;;;;5029978;28;20121;-85
2023/06/19 04:16:07;;;;;;;20.63;13.38;;;16.10;99.90;;;;;;5065654;28;20032;-85
2023/06/19 04:18:32;;;;;;;20.45;12.52;;;16.10;99.90;;;;;;5060362;28;20024;-85
2023/06/19 04:20:58;;;;;;;20.45;12.60;;;16.10;99.90;;;;;;5047571;28;20044;-85
2023/06/19 04:23:23;;;;;;;18.50;12.45;;;16.20;99.90;;;;;;5058972;28;20033;-85
2023/06/19 04:25:49;;;;;;;19.20;12.82;;;16.20;99.90;;;;;;5049581;28;20775;-84
2023/06/19 04:28:14;;;;;;;19.10;13.18;;;16.20;99.90;;;;;;5062642;28;20031;-84
2023/06/19 04:30:40;;;;;;;19.25;13.25;;;16.30;99.90;;;;;;5064811;28;20070;-85
2023/06/19 04:33:07;;;;;;;17.05;12.20;;;16.30;99.90;;;;;;5051995;28;20032;-85
2023/06/19 04:35:34;;;;;;;20.67;13.32;;;16.30;99.90;;;;;;5046758;28;20085;-84
2023/06/19 04:38:01;;;;;;;22.25;13.32;;;16.30;99.90;;;;;;5065583;28;20078;-85
2023/06/19 04:40:27;;;;;;;18.00;12.50;;;16.40;99.90;;;;;;5045734;28;20455;-86
2023/06/19 04:42:53;;;;;;;20.35;13.90;;;16.50;99.90;;;;;;5048732;28;20021;-84
2023/06/19 04:45:20;;;;;;;21.33;13.00;;;16.50;99.90;;;;;;5064543;28;20387;-83
2023/06/19 04:47:45;;;;;;;20.92;13.30;;;16.60;99.90;;;;;;5061016;28;20056;-83
2023/06/19 04:50:11;;;;;;;19.05;12.55;;;16.60;99.90;;;;;;5048940;28;20067;-85
2023/06/19 04:52:37;;;;;;;18.05;12.85;;;16.60;99.90;;;;;;5046794;28;20029;-85
2023/06/19 04:55:09;;;;;;;20.98;13.43;;;16.60;99.90;;;;;;5049668;28;20182;-85
2023/06/19 04:57:35;;;;;;;20.48;13.07;;;16.40;99.90;;;;;;5055615;28;20152;-84
2023/06/19 05:00:01;;;;;;;20.45;12.57;;;16.40;99.90;;;;;;5045702;28;20028;-85
2023/06/19 05:02:27;;;;;;;21.10;13.63;;;16.40;99.90;;;;;;5046203;28;20084;-83
2023/06/19 05:04:52;;;;;;;24.67;13.32;;;16.30;99.90;;;;;;5050036;28;20052;-84
2023/06/19 05:07:18;;;;;;;20.55;12.95;;;16.20;99.90;;;;;;5038572;28;20052;-84
2023/06/19 05:09:43;;;;;;;20.75;13.40;;;16.30;99.90;;;;;;5026068;28;20412;-84
2023/06/19 05:12:11;;;;;;;19.67;14.38;;;16.30;99.90;;;;;;5031864;28;20115;-85
2023/06/19 05:14:37;;;;;;;19.45;13.68;;;16.40;99.90;;;;;;5063382;28;20062;-84
2023/06/19 05:17:02;;;;;;;21.73;13.18;;;16.50;99.90;;;;;;5040494;28;20434;-84
2023/06/19 05:19:28;;;;;;;19.95;12.05;;;16.70;99.90;;;;;;5062179;28;20048;-84
2023/06/19 05:21:54;;;;;;;24.00;12.13;;;16.80;99.90;;;;;;5037633;28;20511;-83
2023/06/19 05:24:19;;;;;;;17.98;11.35;;;17.00;99.90;;;;;;5043284;28;20029;-85
2023/06/19 05:26:45;;;;;;;19.35;11.60;;;17.20;99.90;;;;;;5061288;28;20048;-84
2023/06/19 05:29:11;;;;;;;16.67;10.85;;;17.30;99.90;;;;;;5057132;28;20040;-85
2023/06/19 05:31:36;;;;;;;20.23;11.25;;;17.30;99.90;;;;;;5061382;28;20719;-85
2023/06/19 05:34:02;;;;;;;19.92;11.55;;;17.30;99.90;;;;;;5060647;28;20181;-85
2023/06/19 05:36:27;;;;;;;15.88;10.88;;;17.30;99.90;;;;;;5066269;28;20771;-84
2023/06/19 05:38:53;;;;;;;16.13;10.38;;;17.10;99.90;;;;;;5054585;28;20503;-86
2023/06/19 05:41:18;;;;;;;17.92;11.02;;;17.10;99.90;;;;;;5052064;28;20040;-86
2023/06/19 05:43:44;;;;;;;20.17;11.00;;;17.10;99.90;;;;;;5055156;28;20016;-84
2023/06/19 05:46:11;;;;;;;19.13;10.38;;;17.10;99.90;;;;;;5049315;28;20040;-84
2023/06/19 05:48:37;;;;;;;17.92;9.93;;;17.10;99.90;;;;;;5066978;28;20039;-84
2023/06/19 05:51:02;;;;;;;21.45;9.68;;;17.10;99.90;;;;;;5052752;28;20120;-84
2023/06/19 05:53:28;;;;;;;18.83;10.48;;;17.20;99.90;;;;;;5048905;28;20094;-88
2023/06/19 05:55:54;;;;;;;15.23;9.73;;;17.30;99.90;;;;;;5051403;28;20064;-87
2023/06/19 05:58:21;;;;;;;17.25;10.77;;;17.40;99.90;;;;;;5045960;28;20096;-85
2023/06/19 06:00:47;;;;;;;16.15;9.57;;;17.60;99.90;;;;;;5034654;28;20140;-85
2023/06/19 06:03:13;;;;;;;18.50;9.85;;;17.70;99.90;;;;;;5059953;28;20063;-83
2023/06/19 06:05:39;;;;;;;19.85;10.60;;;17.70;99.90;;;;;;5047158;28;20075;-88
2023/06/19 06:08:04;;;;;;;38.13;22.65;;;17.80;99.90;;;;;;5066086;28;20060;-87
2023/06/19 06:10:30;;;;;;;73.35;46.92;;;17.90;99.90;;;;;;5066590;28;20127;-89
2023/06/19 06:12:56;;;;;;;22.70;13.80;;;18.10;99.90;;;;;;5052097;28;20040;-90
2023/06/19 06:15:21;;;;;;;17.17;9.90;;;18.10;99.90;;;;;;5039305;28;20774;-86
2023/06/19 06:17:47;;;;;;;16.02;9.23;;;18.00;99.90;;;;;;5048433;28;20020;-90
2023/06/19 06:20:12;;;;;;;15.10;8.65;;;18.10;99.90;;;;;;5038883;28;20035;-88
2023/06/19 06:22:39;;;;;;;18.00;9.13;;;18.20;99.90;;;;;;5038467;28;20033;-87
2023/06/19 06:25:06;;;;;;;23.70;17.55;;;18.20;99.90;;;;;;5032731;28;20029;-85
2023/06/19 06:27:31;;;;;;;71.93;43.13;;;18.30;99.90;;;;;;5035070;28;20032;-84
2023/06/19 06:29:57;;;;;;;120.38;75.78;;;18.40;99.90;;;;;;5056016;28;20048;-83
2023/06/19 06:32:22;;;;;;;36.13;20.67;;;18.50;99.90;;;;;;5062240;28;20052;-82
2023/06/19 06:34:48;;;;;;;37.42;23.70;;;18.60;99.90;;;;;;5044360;28;20522;-82
2023/06/19 06:37:16;;;;;;;29.63;18.08;;;18.70;99.90;;;;;;5046665;28;20029;-83
2023/06/19 06:39:41;;;;;;;16.75;11.30;;;18.70;99.90;;;;;;5056594;28;20039;-83
2023/06/19 06:42:07;;;;;;;15.27;9.45;;;18.90;99.90;;;;;;5054792;28;20029;-82
2023/06/19 06:44:32;;;;;;;15.77;9.38;;;18.70;99.90;;;;;;4695756;28;9999662;-83
2023/06/19 06:46:58;;;;;;;17.35;8.38;;;18.80;99.90;;;;;;5064892;28;20037;-84
2023/06/19 06:49:23;;;;;;;12.73;7.53;;;18.80;99.90;;;;;;5058792;28;20028;-84
2023/06/19 06:51:49;;;;;;;14.27;8.73;;;18.90;99.90;;;;;;5045302;28;20137;-84
2023/06/19 06:54:15;;;;;;;13.70;7.85;;;19.00;99.90;;;;;;5036012;28;20148;-83
2023/06/19 06:56:41;;;;;;;13.32;8.25;;;19.00;99.90;;;;;;5046303;28;20028;-85
2023/06/19 06:59:06;;;;;;;13.43;6.88;;;19.10;99.90;;;;;;5044484;28;20029;-85
2023/06/19 07:01:32;;;;;;;12.88;7.13;;;19.00;99.90;;;;;;5057363;28;20913;-84
2023/06/19 07:03:57;;;;;;;11.52;6.57;;;19.20;99.90;;;;;;5057661;28;20069;-85
2023/06/19 07:06:23;;;;;;;12.95;6.55;;;19.40;99.90;;;;;;5041510;28;20046;-83
2023/06/19 07:08:49;;;;;;;12.18;7.22;;;19.50;99.90;;;;;;5046194;28;20123;-84
2023/06/19 07:11:14;;;;;;;10.65;6.85;;;19.50;99.90;;;;;;5051179;28;20032;-84
2023/06/19 07:13:41;;;;;;;15.30;7.05;;;19.70;99.90;;;;;;5039401;28;20035;-84
2023/06/19 07:16:07;;;;;;;9.77;6.63;;;19.80;99.90;;;;;;5044271;28;20104;-83
2023/06/19 07:18:34;;;;;;;11.15;5.70;;;19.80;99.90;;;;;;5037567;28;20036;-83
2023/06/19 07:21:01;;;;;;;10.18;5.90;;;19.80;99.90;;;;;;5063542;28;20098;-84
2023/06/19 07:23:27;;;;;;;12.25;6.43;;;20.00;99.90;;;;;;5040774;28;20060;-88
2023/06/19 07:25:52;;;;;;;10.85;6.28;;;20.10;99.90;;;;;;5041763;28;20121;-85
2023/06/19 07:28:18;;;;;;;8.75;4.28;;;20.40;99.90;;;;;;5034498;28;20428;-85
2023/06/19 07:30:45;;;;;;;10.32;5.20;;;21.20;99.90;;;;;;5047056;28;20051;-82
2023/06/19 07:33:10;;;;;;;8.68;3.88;;;23.60;99.90;;;;;;5039069;28;20115;-86
2023/06/19 07:35:36;;;;;;;6.28;3.38;;;26.50;92.60;;;;;;5060332;28;20117;-84
2023/06/19 07:38:01;;;;;;;7.65;3.30;;;29.00;87.10;;;;;;5040067;28;20049;-84
2023/06/19 07:40:27;;;;;;;4.97;3.10;;;30.80;80.80;;;;;;5040031;28;20024;-83
2023/06/19 07:42:52;;;;;;;9.23;4.22;;;31.20;76.20;;;;;;5054909;28;20029;-86
2023/06/19 07:45:18;;;;;;;7.53;3.25;;;31.80;70.20;;;;;;5044649;28;20127;-83
2023/06/19 07:47:44;;;;;;;7.38;3.60;;;32.50;71.00;;;;;;5040131;28;20028;-82
2023/06/19 07:50:09;;;;;;;5.63;3.40;;;34.10;70.00;;;;;;5060311;28;20458;-82
2023/06/19 07:52:35;;;;;;;5.63;3.50;;;34.00;61.70;;;;;;5043116;28;20030;-82
2023/06/19 07:55:01;;;;;;;5.72;3.58;;;35.10;59.30;;;;;;5037673;28;20900;-83
2023/06/19 07:57:26;;;;;;;7.13;3.30;;;35.80;56.30;;;;;;5040120;28;20061;-82
2023/06/19 07:59:54;;;;;;;5.90;3.47;;;36.50;57.70;;;;;;5039427;28;20043;-83
2023/06/19 08:02:19;;;;;;;6.80;4.13;;;37.00;55.90;;;;;;5059025;28;20090;-83
2023/06/19 08:04:46;;;;;;;6.30;3.80;;;37.00;52.60;;;;;;5041200;28;20613;-83
2023/06/19 08:07:12;;;;;;;5.82;4.05;;;37.70;53.70;;;;;;5039456;28;20094;-82
2023/06/19 08:09:37;;;;;;;6.15;3.88;;;38.40;50.10;;;;;;5032371;28;20028;-83
2023/06/19 08:12:03;;;;;;;5.28;3.85;;;38.80;51.90;;;;;;5061478;28;20032;-83
2023/06/19 08:14:29;;;;;;;6.30;4.20;;;39.10;49.90;;;;;;5042022;28;20025;-84
2023/06/19 08:16:55;;;;;;;10.40;3.83;;;39.60;49.40;;;;;;5060709;28;20043;-83
2023/06/19 08:19:20;;;;;;;6.85;4.03;;;39.40;49.70;;;;;;5064002;28;20408;-84
2023/06/19 08:21:46;;;;;;;7.97;4.10;;;39.50;47.10;;;;;;5046158;28;20032;-83
2023/06/19 08:24:12;;;;;;;6.35;3.97;;;39.00;46.50;;;;;;5045268;28;20028;-84
2023/06/19 08:26:37;;;;;;;7.05;4.75;;;39.00;47.50;;;;;;5060404;28;20051;-82
2023/06/19 08:29:03;;;;;;;7.20;4.57;;;39.10;46.10;;;;;;5045064;28;20761;-83
2023/06/19 08:31:28;;;;;;;8.88;4.65;;;39.40;47.30;;;;;;5059801;28;20035;-84
2023/06/19 08:33:55;;;;;;;6.75;4.70;;;38.90;45.90;;;;;;5063097;28;20266;-85
2023/06/19 08:36:20;;;;;;;6.05;4.53;;;38.20;45.70;;;;;;5061176;28;20056;-84
2023/06/19 08:38:50;;;;;;;5.68;4.55;;;38.00;47.10;;;;;;5043583;28;20472;-85
2023/06/19 08:41:19;;;;;;;5.65;4.15;;;37.50;47.10;;;;;;5065796;28;20052;-83
2023/06/19 08:43:45;;;;;;;7.47;4.03;;;38.00;48.40;;;;;;5021064;28;20106;-84
2023/06/19 08:46:15;;;;;;;5.30;3.85;;;38.80;47.00;;;;;;5038980;28;20043;-84
2023/06/19 08:48:41;;;;;;;5.95;3.95;;;39.40;45.40;;;;;;5049607;28;20020;-84
2023/06/19 08:51:07;;;;;;;7.63;5.13;;;38.80;44.20;;;;;;5051948;28;20055;-87
2023/06/19 08:53:35;;;;;;;8.10;5.75;;;36.10;46.00;;;;;;5055873;28;20025;-90
2023/06/19 08:56:04;;;;;;;8.05;6.18;;;34.20;50.90;;;;;;5067209;28;20032;-87
2023/06/19 08:58:29;;;;;;;9.88;7.15;;;32.20;53.70;;;;;;5044093;28;20115;-86
2023/06/19 09:00:58;;;;;;;8.90;6.50;;;30.20;57.50;;;;;;5048595;28;20136;-88
2023/06/19 09:03:23;;;;;;;10.35;7.25;;;29.10;63.10;;;;;;5065921;28;20028;-88
2023/06/19 09:05:50;;;;;;;11.18;9.65;;;28.00;68.80;;;;;;5057862;28;20040;-87
2023/06/19 09:08:17;;;;;;;14.43;11.13;;;27.50;72.10;;;;;;5049414;28;20058;-90
2023/06/19 09:10:54;;;;;;;15.35;12.45;;;26.70;76.60;;;;;;5068108;28;20479;-86
2023/06/19 09:13:19;;;;;;;19.35;13.80;;;26.00;77.60;;;;;;5069102;28;20036;-84
2023/06/19 09:15:45;;;;;;;17.02;11.77;;;25.20;84.20;;;;;;4715497;28;10000111;-88
2023/06/19 09:18:12;;;;;;;14.15;10.18;;;25.60;89.80;;;;;;5068065;28;20031;-88
2023/06/19 09:20:43;;;;;;;13.15;10.38;;;27.50;85.70;;;;;;5067181;28;20133;-82
2023/06/19 09:23:12;;;;;;;12.82;10.02;;;30.60;77.50;;;;;;5059207;28;20082;-82
2023/06/19 09:25:45;;;;;;;9.52;8.02;;;31.70;69.70;;;;;;5068295;28;20491;-87
2023/06/19 09:28:23;;;;;;;10.80;9.55;;;32.90;62.70;;;;;;5062096;28;20166;-84
2023/06/19 09:30:58;;;;;;;9.18;8.07;;;32.60;59.60;;;;;;5064022;28;20599;-89
2023/06/19 09:33:26;;;;;;;11.15;8.32;;;32.60;64.20;;;;;;5041845;28;20031;-86
2023/06/19 09:35:55;;;;;;;10.45;7.57;;;34.00;60.80;;;;;;5027273;28;20039;-86
2023/06/19 09:38:24;;;;;;;7.90;7.05;;;34.00;58.00;;;;;;5049101;28;20031;-88
2023/06/19 09:40:51;;;;;;;8.50;7.60;;;35.10;58.60;;;;;;5065828;28;20082;-88
2023/06/19 09:43:23;;;;;;;9.02;6.88;;;36.00;54.50;;;;;;5069707;28;20032;-86
2023/06/19 09:45:52;;;;;;;8.73;7.07;;;36.60;53.60;;;;;;5066653;28;20096;-88
2023/06/19 09:48:22;;;;;;;6.90;5.88;;;36.10;52.90;;;;;;5017171;28;20029;-90
2023/06/19 09:50:55;;;;;;;9.45;5.38;;;36.90;55.30;;;;;;5072896;28;20108;-89
2023/06/19 09:53:22;;;;;;;5.72;4.47;;;38.60;50.10;;;;;;5064601;28;20020;-90
2023/06/19 09:55:52;;;;;;;6.28;5.00;;;39.10;48.20;;;;;;5061647;28;20012;-89
2023/06/19 09:58:21;;;;;;;5.72;4.68;;;39.40;46.70;;;;;;5026132;28;20567;-93
2023/06/19 10:00:50;;;;;;;5.35;4.80;;;38.90;47.30;;;;;;5070504;28;20024;-88
2023/06/19 10:03:16;;;;;;;5.35;4.82;;;38.60;48.10;;;;;;5029456;28;20098;-89
2023/06/19 10:05:42;;;;;;;5.95;4.65;;;38.70;50.30;;;;;;5044542;28;20140;-90
2023/06/19 10:08:08;;;;;;;7.88;5.10;;;39.60;46.30;;;;;;5060111;28;20032;-89
2023/06/19 10:10:35;;;;;;;8.45;5.88;;;39.10;44.60;;;;;;5043456;28;20024;-89
2023/06/19 10:13:21;;;;;;;6.68;5.05;;;38.10;46.10;;;;;;5067230;28;20395;-92
2023/06/19 10:15:47;;;;;;;8.35;5.63;;;38.00;47.90;;;;;;5065465;28;20093;-89
2023/06/19 10:18:17;;;;;;;7.00;6.10;;;37.20;49.20;;;;;;5066570;28;20025;-91
2023/06/19 10:20:44;;;;;;;8.02;6.05;;;36.20;49.50;;;;;;5069981;28;20157;-86
2023/06/19 10:23:22;;;;;;;7.97;7.15;;;35.50;51.90;;;;;;5058808;28;20079;-87
2023/06/19 10:25:55;;;;;;;8.77;7.30;;;33.60;53.80;;;;;;5048697;28;20041;-91
2023/06/19 10:28:21;;;;;;;8.85;7.30;;;33.10;55.70;;;;;;5028740;28;20064;-89
2023/06/19 10:30:54;;;;;;;10.00;6.80;;;32.90;55.90;;;;;;5034588;28;20027;-88
2023/06/19 10:33:20;;;;;;;9.88;6.95;;;34.00;56.20;;;;;;5011018;28;20063;-89
2023/06/19 10:35:46;;;;;;;8.20;6.95;;;35.70;54.80;;;;;;5018501;28;20023;-87
2023/06/19 10:38:15;;;;;;;9.30;7.20;;;35.20;50.50;;;;;;5077952;28;20030;-86
2023/06/19 10:40:40;;;;;;;11.18;8.55;;;33.40;52.60;;;;;;5053640;28;20109;-89
2023/06/19 10:43:06;;;;;;;10.00;8.77;;;31.20;57.50;;;;;;5070253;28;20582;-85
2023/06/19 10:45:32;;;;;;;9.93;8.30;;;30.20;59.80;;;;;;5060570;28;20036;-87
2023/06/19 10:48:02;;;;;;;9.25;8.15;;;29.60;61.90;;;;;;5042364;28;20538;-90
2023/06/19 10:50:28;;;;;;;9.88;7.78;;;29.20;65.10;;;;;;5039742;28;20115;-89
2023/06/19 10:52:57;;;;;;;14.93;9.27;;;29.30;65.70;;;;;;5042233;28;20079;-86
2023/06/19 10:55:23;;;;;;;11.32;8.82;;;29.00;65.40;;;;;;5033310;28;20493;-86
2023/06/19 10:57:49;;;;;;;12.95;9.90;;;29.10;66.40;;;;;;5062199;28;20031;-87
2023/06/19 11:00:26;;;;;;;9.85;8.40;;;28.50;68.70;;;;;;5052136;28;20131;-86
2023/06/19 11:02:52;;;;;;;15.10;9.55;;;28.40;70.30;;;;;;5048379;28;20139;-88
2023/06/19 11:05:20;;;;;;;12.38;9.05;;;28.60;68.50;;;;;;5070000;28;20945;-87
2023/06/19 11:07:57;;;;;;;11.38;10.05;;;28.30;71.70;;;;;;5046951;28;20025;-87
2023/06/19 11:10:27;;;;;;;14.55;11.25;;;28.20;69.70;;;;;;5019095;28;20211;-87
2023/06/19 11:12:58;;;;;;;11.98;9.13;;;28.00;70.80;;;;;;5057346;28;20040;-88
2023/06/19 11:15:33;;;;;;;;;;;28.20;74.00;;;;;;5063738;28;20119;-90
2023/06/19 11:18:00;;;;;;;12.95;9.45;;;28.50;71.30;;;;;;5071923;28;19912;-92
2023/06/19 11:20:26;;;;;;;13.98;10.63;;;28.80;70.50;;;;;;5042028;28;20270;-89
2023/06/19 11:22:59;;;;;;;13.23;9.05;;;28.10;70.70;;;;;;5049387;28;20025;-88
2023/06/19 11:25:38;;;;;;;13.10;9.66;;;28.00;76.30;;;;;;4703833;28;10000790;-88
2023/06/19 11:28:05;;;;;;;12.05;9.45;;;28.10;73.70;;;;;;5042462;28;20032;-86
2023/06/19 11:30:32;;;;;;;12.73;8.38;;;27.60;75.40;;;;;;5063162;28;20127;-85
2023/06/19 11:32:58;;;;;;;11.35;9.15;;;27.10;77.00;;;;;;5046243;28;20032;-83
2023/06/19 11:35:24;;;;;;;12.77;10.15;;;27.30;76.30;;;;;;5061289;28;20028;-87
2023/06/19 11:37:51;;;;;;;13.02;9.82;;;26.80;78.00;;;;;;5057528;28;20453;-85
2023/06/19 11:40:20;;;;;;;15.30;9.88;;;26.70;77.60;;;;;;5059518;28;20029;-85
2023/06/19 11:42:46;;;;;;;13.95;9.02;;;26.00;80.10;;;;;;5065787;28;20028;-86
2023/06/19 11:45:12;;;;;;;13.63;9.43;;;26.10;83.00;;;;;;5058525;28;20044;-83
2023/06/19 11:47:37;;;;;;;12.20;8.98;;;26.40;82.90;;;;;;5063470;28;20152;-85
2023/06/19 11:50:07;;;;;;;13.82;10.30;;;26.60;81.40;;;;;;5046331;28;20025;-87
2023/06/19 11:52:33;;;;;;;10.55;8.05;;;25.90;81.50;;;;;;5036757;28;20017;-86
2023/06/19 11:54:58;;;;;;;10.48;8.43;;;26.20;85.20;;;;;;5062999;28;20035;-87
2023/06/19 11:57:26;;;;;;;11.20;8.40;;;26.30;83.40;;;;;;5034802;28;20025;-88
2023/06/19 11:59:51;;;;;;;12.15;8.90;;;26.40;81.60;;;;;;5044997;28;20040;-86
2023/06/19 12:02:17;;;;;;;11.10;8.30;;;26.50;83.50;;;;;;5041723;28;20428;-86
2023/06/19 12:04:43;;;;;;;12.85;7.88;;;26.80;83.00;;;;;;5038380;28;20043;-87
2023/06/19 12:07:08;;;;;;;9.23;7.15;;;26.90;80.50;;;;;;5042891;28;20400;-85
2023/06/19 12:09:34;;;;;;;11.52;6.43;;;27.20;79.50;;;;;;5040758;28;20104;-88
2023/06/19 12:12:00;;;;;;;14.43;7.90;;;27.40;80.10;;;;;;5038935;28;20037;-87
2023/06/19 12:14:26;;;;;;;10.20;6.20;;;27.80;78.80;;;;;;5036344;28;20133;-87
2023/06/19 12:16:52;;;;;;;8.60;6.32;;;27.70;77.80;;;;;;5056461;28;20051;-88
2023/06/19 12:19:18;;;;;;;9.23;5.78;;;28.10;77.60;;;;;;5045833;28;20442;-88
2023/06/19 12:21:44;;;;;;;10.32;6.78;;;28.30;77.30;;;;;;5058312;28;20539;-85
2023/06/19 12:24:10;;;;;;;12.55;5.30;;;28.60;76.90;;;;;;5038332;28;20385;-87
2023/06/19 12:26:39;;;;;;;11.95;4.47;;;29.00;84.50;;;;;;5039272;28;20101;-87
2023/06/19 12:29:06;;;;;;;8.77;5.40;;;29.70;77.70;;;;;;5040101;28;20059;-86
2023/06/19 12:31:36;;;;;;;8.23;4.80;;;29.40;70.80;;;;;;5041580;28;20074;-85